Time;durP1;ratioP1;P1;durP2;ratioP2;P2;SDS_P1;SDS_P2;PMS_P1;PMS_P2;Temp;Humidity;BMP_temperature;BMP_pressure;BME280_temperature;BME280_humidity;BME280_pressure;Samples;Min_cycle;Max_cycle;Signal;HPM_P1;HPM_P2
2022/06/01 00:00:19;;;;;;;8.98;6.32;;;;;;;;;;4991248;28;20117;-67
2022/06/01 00:02:44;;;;;;;9.43;6.85;;;;;;;;;;4979980;28;20496;-70
2022/06/01 00:05:09;;;;;;;10.27;6.63;;;;;;;;;;4989954;28;20030;-66
2022/06/01 00:07:35;;;;;;;9.18;6.05;;;;;;;;;;4988181;28;20026;-68
2022/06/01 00:10:00;;;;;;;13.10;6.63;;;;;;;;;;4978311;28;20081;-73
2022/06/01 00:12:25;;;;;;;8.63;5.75;;;;;;;;;;4987027;28;20434;-67
2022/06/01 00:14:51;;;;;;;9.77;5.82;;;;;;;;;;4991002;28;20048;-73
2022/06/01 00:17:16;;;;;;;6.78;5.32;;;;;;;;;;4990410;28;20405;-69
2022/06/01 00:19:42;;;;;;;10.77;5.88;;;;;;;;;;4990706;28;20056;-72
2022/06/01 00:22:17;;;;;;;9.18;5.63;;;;;;;;;;4992407;28;20033;-68
2022/06/01 00:24:43;;;;;;;8.25;5.82;;;;;;;;;;4990996;28;20101;-68
2022/06/01 00:27:09;;;;;;;11.00;5.57;;;;;;;;;;4976198;28;21379;-69
2022/06/01 00:29:35;;;;;;;9.35;5.32;;;;;;;;;;4990022;28;20033;-69
2022/06/01 00:32:00;;;;;;;10.07;6.20;;;;;;;;;;4989132;28;20108;-69
2022/06/01 00:34:25;;;;;;;9.18;5.60;;;;;;;;;;4989118;28;20030;-68
2022/06/01 00:36:51;;;;;;;8.50;5.68;;;;;;;;;;4987947;28;20022;-72
2022/06/01 00:39:17;;;;;;;10.20;6.00;;;;;;;;;;4987824;28;20358;-69
2022/06/01 00:41:42;;;;;;;9.43;5.63;;;;;;;;;;4984821;28;20038;-70
2022/06/01 00:44:08;;;;;;;10.35;6.05;;;;;;;;;;4987022;28;20041;-72
2022/06/01 00:46:33;;;;;;;8.50;5.85;;;;;;;;;;4992594;28;20369;-69
2022/06/01 00:49:01;;;;;;;8.45;5.15;;;;;;;;;;4992898;28;20353;-70
2022/06/01 00:51:28;;;;;;;8.93;6.13;;;;;;;;;;4990726;28;20022;-76
2022/06/01 00:53:54;;;;;;;8.32;5.82;;;;;;;;;;4979624;28;20026;-72
2022/06/01 00:56:24;;;;;;;8.20;5.82;;;;;;;;;;4991215;28;20065;-69
2022/06/01 00:58:51;;;;;;;10.43;5.75;;;;;;;;;;4982899;28;20109;-70
2022/06/01 01:01:18;;;;;;;10.57;5.90;;;;;;;;;;4977804;28;20120;-67
2022/06/01 01:03:45;;;;;;;8.80;5.88;;;;;;;;;;4989771;28;20037;-74
2022/06/01 01:06:16;;;;;;;8.25;5.47;;;;;;;;;;4992457;28;20034;-69
2022/06/01 01:08:42;;;;;;;8.27;5.85;;;;;;;;;;4989044;28;20023;-69
2022/06/01 01:11:08;;;;;;;8.45;5.38;;;;;;;;;;4989627;28;20077;-68
2022/06/01 01:13:33;;;;;;;10.23;5.75;;;;;;;;;;4987598;28;20058;-67
2022/06/01 01:15:59;;;;;;;10.18;5.90;;;;;;;;;;4977104;28;20505;-69
2022/06/01 01:18:30;;;;;;;6.93;5.60;;;;;;;;;;4991750;28;20037;-72
2022/06/01 01:21:01;;;;;;;6.57;5.22;;;;;;;;;;4989832;28;20033;-70
2022/06/01 01:23:31;;;;;;;9.68;5.50;;;;;;;;;;4985580;28;20030;-69
2022/06/01 01:25:56;;;;;;;9.40;5.60;;;;;;;;;;4985021;28;20041;-70
2022/06/01 01:28:22;;;;;;;9.63;5.07;;;;;;;;;;4991970;28;20037;-68
2022/06/01 01:30:53;;;;;;;6.60;4.80;;;;;;;;;;4985235;28;20160;-69
2022/06/01 01:33:23;;;;;;;10.05;5.68;;;;;;;;;;4980964;28;20018;-73
2022/06/01 01:35:50;;;;;;;8.60;5.57;;;;;;;;;;4976749;28;20025;-69
2022/06/01 01:38:36;;;;;;;8.93;5.57;;;;;;;;;;4985767;28;20034;-66
2022/06/01 01:41:03;;;;;;;11.85;6.45;;;;;;;;;;4983053;28;20045;-68
2022/06/01 01:43:30;;;;;;;7.95;5.47;;;;;;;;;;4987195;28;20018;-68
2022/06/01 01:45:55;;;;;;;7.10;5.40;;;;;;;;;;4988169;28;20036;-66
2022/06/01 01:48:20;;;;;;;8.68;5.38;;;;;;;;;;4979158;28;20024;-69
2022/06/01 01:50:46;;;;;;;7.80;5.55;;;;;;;;;;4983956;28;20029;-66
2022/06/01 01:53:11;;;;;;;10.18;6.45;;;;;;;;;;4990590;28;20035;-72
2022/06/01 01:55:45;;;;;;;9.52;5.95;;;;;;;;;;4988545;28;20497;-68
2022/06/01 01:58:16;;;;;;;7.78;5.45;;;;;;;;;;4979111;28;20362;-68
2022/06/01 02:00:47;;;;;;;7.45;5.43;;;;;;;;;;4990298;28;20029;-68
2022/06/01 02:03:22;;;;;;;9.43;5.40;;;;;;;;;;4974462;28;20619;-67
2022/06/01 02:06:04;;;;;;;8.75;5.13;;;;;;;;;;4984157;28;20042;-69
2022/06/01 02:08:35;;;;;;;8.13;5.22;;;;;;;;;;4988504;28;20023;-71
2022/06/01 02:13:48;;;;;;;6.68;5.40;;;;;;;;;;4985768;28;20029;-68
2022/06/01 02:16:14;;;;;;;9.43;5.68;;;;;;;;;;4988079;28;20117;-74
2022/06/01 02:18:48;;;;;;;7.22;5.30;;;;;;;;;;4990240;28;20114;-75
2022/06/01 02:21:25;;;;;;;12.20;5.75;;;;;;;;;;4981991;28;20101;-68
2022/06/01 02:23:53;;;;;;;10.13;5.93;;;;;;;;;;4977858;28;20026;-71
2022/06/01 02:26:19;;;;;;;7.93;5.70;;;;;;;;;;4978671;28;20032;-71
2022/06/01 02:28:46;;;;;;;8.77;6.00;;;;;;;;;;4960873;28;20030;-69
2022/06/01 02:31:12;;;;;;;9.63;6.75;;;;;;;;;;4973435;28;20044;-68
2022/06/01 02:33:38;;;;;;;11.02;6.20;;;;;;;;;;4977692;28;20026;-72
2022/06/01 02:36:05;;;;;;;9.13;5.97;;;;;;;;;;4986176;28;20037;-73
2022/06/01 02:38:33;;;;;;;7.82;5.90;;;;;;;;;;4988578;28;20331;-69
2022/06/01 02:40:59;;;;;;;10.27;6.32;;;;;;;;;;4980032;28;20022;-70
2022/06/01 02:43:26;;;;;;;10.45;5.82;;;;;;;;;;4990816;28;20026;-70
2022/06/01 02:45:52;;;;;;;8.85;6.50;;;;;;;;;;4993825;28;20045;-70
2022/06/01 02:48:17;;;;;;;9.68;6.63;;;;;;;;;;4991874;28;20030;-69
2022/06/01 02:50:42;;;;;;;7.90;5.45;;;;;;;;;;4991892;28;20036;-70
2022/06/01 02:53:08;;;;;;;7.30;5.82;;;;;;;;;;4992094;28;20206;-74
2022/06/01 02:55:34;;;;;;;13.13;5.82;;;;;;;;;;4987415;28;20121;-72
2022/06/01 02:58:00;;;;;;;8.02;5.65;;;;;;;;;;4990657;28;20054;-69
2022/06/01 03:00:27;;;;;;;8.70;5.55;;;;;;;;;;4991669;28;20339;-69
2022/06/01 03:02:57;;;;;;;7.97;5.80;;;;;;;;;;4977930;28;20443;-71
2022/06/01 03:05:24;;;;;;;9.93;6.25;;;;;;;;;;4975209;28;20434;-70
2022/06/01 03:07:49;;;;;;;7.70;5.85;;;;;;;;;;4988338;28;20037;-68
2022/06/01 03:10:15;;;;;;;8.82;6.07;;;;;;;;;;4985824;28;20014;-73
2022/06/01 03:12:40;;;;;;;8.27;5.65;;;;;;;;;;4974872;28;20038;-68
2022/06/01 03:15:07;;;;;;;8.82;5.82;;;;;;;;;;4987711;28;20100;-70
2022/06/01 03:17:33;;;;;;;9.77;5.85;;;;;;;;;;4990173;28;20354;-69
2022/06/01 03:19:58;;;;;;;8.82;6.10;;;;;;;;;;4983349;28;20018;-69
2022/06/01 03:22:24;;;;;;;8.65;5.30;;;;;;;;;;4975247;28;20089;-75
2022/06/01 03:24:50;;;;;;;7.65;5.72;;;;;;;;;;4985158;28;20380;-72
2022/06/01 03:27:15;;;;;;;7.80;5.97;;;;;;;;;;4981824;28;20045;-71
2022/06/01 03:29:40;;;;;;;9.13;5.72;;;;;;;;;;4990829;28;20037;-68
2022/06/01 03:32:06;;;;;;;9.32;5.70;;;;;;;;;;4990129;28;20029;-67
2022/06/01 03:34:31;;;;;;;8.98;5.50;;;;;;;;;;4993287;28;20413;-69
2022/06/01 03:36:57;;;;;;;8.35;4.88;;;;;;;;;;4991819;28;20026;-71
2022/06/01 03:39:22;;;;;;;7.68;5.80;;;;;;;;;;4990864;28;20035;-68
2022/06/01 03:41:48;;;;;;;9.40;6.35;;;;;;;;;;4991645;28;20026;-75
2022/06/01 03:47:04;;;;;;;8.70;5.85;;;;;;;;;;4991799;28;20100;-71
2022/06/01 03:49:30;;;;;;;8.73;6.25;;;;;;;;;;4989441;28;20569;-68
2022/06/01 03:51:56;;;;;;;8.77;6.68;;;;;;;;;;4987531;28;20796;-68
2022/06/01 03:54:22;;;;;;;9.70;6.50;;;;;;;;;;4991075;28;20018;-68
2022/06/01 03:56:47;;;;;;;9.07;6.20;;;;;;;;;;4993032;28;20068;-67
2022/06/01 03:59:12;;;;;;;7.68;6.00;;;;;;;;;;4994029;28;20066;-74
2022/06/01 04:01:38;;;;;;;9.25;6.30;;;;;;;;;;4991629;28;20521;-71
2022/06/01 04:04:03;;;;;;;9.27;6.75;;;;;;;;;;4993357;28;20064;-68
2022/06/01 04:06:30;;;;;;;10.18;6.03;;;;;;;;;;4978497;28;20161;-68
2022/06/01 04:08:55;;;;;;;9.00;5.90;;;;;;;;;;4989734;28;20033;-67
2022/06/01 04:11:21;;;;;;;7.57;5.82;;;;;;;;;;4984848;28;20030;-71
2022/06/01 04:13:46;;;;;;;7.25;5.80;;;;;;;;;;4980716;28;20072;-69
2022/06/01 04:16:11;;;;;;;7.35;5.22;;;;;;;;;;4980040;28;21144;-75
2022/06/01 04:18:37;;;;;;;10.15;6.40;;;;;;;;;;4977249;28;20037;-70
2022/06/01 04:21:02;;;;;;;7.85;5.45;;;;;;;;;;4979050;28;20030;-69
2022/06/01 04:23:27;;;;;;;6.47;5.50;;;;;;;;;;4981559;28;20030;-68
2022/06/01 04:25:53;;;;;;;9.27;5.60;;;;;;;;;;4981367;28;20034;-75
2022/06/01 04:28:18;;;;;;;7.18;5.50;;;;;;;;;;4984600;28;20034;-70
2022/06/01 04:30:44;;;;;;;9.02;5.07;;;;;;;;;;4980805;28;20053;-70
2022/06/01 04:33:09;;;;;;;7.18;5.10;;;;;;;;;;4979568;28;20401;-70
2022/06/01 04:35:34;;;;;;;8.15;5.43;;;;;;;;;;4980329;28;20030;-70
2022/06/01 04:38:15;;;;;;;7.35;5.70;;;;;;;;;;4973971;28;20042;-77
2022/06/01 04:40:44;;;;;;;8.25;6.13;;;;;;;;;;4978635;28;20065;-68
2022/06/01 04:43:09;;;;;;;;;;;;;;;;;;4976171;28;20079;-74
2022/06/01 04:45:35;;;;;;;8.23;6.00;;;;;;;;;;4991069;28;20356;-73
2022/06/01 04:48:00;;;;;;;10.00;5.68;;;;;;;;;;4978542;28;20030;-68
2022/06/01 04:50:25;;;;;;;7.00;5.45;;;;;;;;;;4971149;28;20057;-74
2022/06/01 04:52:51;;;;;;;8.50;5.60;;;;;;;;;;4970540;28;20026;-70
2022/06/01 04:55:16;;;;;;;10.05;4.93;;;;;;;;;;4968353;28;20049;-68
2022/06/01 04:57:42;;;;;;;7.72;4.78;;;;;;;;;;4971204;28;20022;-70
2022/06/01 05:00:08;;;;;;;8.45;5.20;;;;;;;;;;4970810;28;20018;-72
2022/06/01 05:02:34;;;;;;;6.82;5.03;;;;;;;;;;4971852;28;20026;-78
2022/06/01 05:04:59;;;;;;;7.72;5.38;;;;;;;;;;4974121;28;20045;-74
2022/06/01 05:07:24;;;;;;;9.93;5.72;;;;;;;;;;4980967;28;20434;-70
2022/06/01 05:09:50;;;;;;;14.38;7.13;;;;;;;;;;4987424;28;20030;-74
2022/06/01 05:12:15;;;;;;;13.10;9.18;;;;;;;;;;4976391;28;20022;-70
2022/06/01 05:14:40;;;;;;;10.88;8.27;;;;;;;;;;4970627;28;20338;-72
2022/06/01 05:17:06;;;;;;;8.85;6.15;;;;;;;;;;4970439;28;20049;-68
2022/06/01 05:19:32;;;;;;;7.43;5.97;;;;;;;;;;4981378;28;20097;-68
2022/06/01 05:21:58;;;;;;;9.55;6.07;;;;;;;;;;4988214;28;20022;-68
2022/06/01 05:24:23;;;;;;;7.13;5.35;;;;;;;;;;4976704;28;21275;-70
2022/06/01 05:26:49;;;;;;;8.40;4.85;;;;;;;;;;4977284;28;20029;-69
2022/06/01 05:29:14;;;;;;;9.27;4.57;;;;;;;;;;4985231;28;20034;-72
2022/06/01 05:31:39;;;;;;;10.85;4.70;;;;;;;;;;4987521;28;20023;-68
2022/06/01 05:34:05;;;;;;;7.75;5.22;;;;;;;;;;4977531;28;20022;-71
2022/06/01 05:36:30;;;;;;;5.55;4.40;;;;;;;;;;4989633;28;20041;-68
2022/06/01 05:38:55;;;;;;;8.25;5.20;;;;;;;;;;4987937;28;20100;-75
2022/06/01 05:41:21;;;;;;;7.47;5.28;;;;;;;;;;4990059;28;20441;-71
2022/06/01 05:43:47;;;;;;;7.60;5.80;;;;;;;;;;4989434;28;20037;-72
2022/06/01 05:46:12;;;;;;;8.75;5.10;;;;;;;;;;4986743;28;20026;-70
2022/06/01 05:48:38;;;;;;;6.60;5.15;;;;;;;;;;4985903;28;20036;-72
2022/06/01 05:51:03;;;;;;;7.60;4.88;;;;;;;;;;4988439;28;20065;-69
2022/06/01 05:53:29;;;;;;;7.18;4.70;;;;;;;;;;4971129;28;20125;-70
2022/06/01 05:55:54;;;;;;;7.93;4.70;;;;;;;;;;4984645;28;20046;-70
2022/06/01 05:58:21;;;;;;;7.13;4.95;;;;;;;;;;4987962;28;20058;-70
2022/06/01 06:00:47;;;;;;;9.18;5.22;;;;;;;;;;4988148;28;20026;-71
2022/06/01 06:03:13;;;;;;;5.43;4.65;;;;;;;;;;4983934;28;20169;-71
2022/06/01 06:08:22;;;;;;;5.43;4.13;;;;;;;;;;4989507;28;20044;-72
2022/06/01 06:10:48;;;;;;;6.55;4.30;;;;;;;;;;4986962;28;20041;-71
2022/06/01 06:13:13;;;;;;;4.97;3.88;;;;;;;;;;4990799;28;20457;-71
2022/06/01 06:15:38;;;;;;;6.55;3.92;;;;;;;;;;4986613;28;20429;-76
2022/06/01 06:18:04;;;;;;;4.13;3.58;;;;;;;;;;4989566;28;20034;-74
2022/06/01 06:20:29;;;;;;;6.07;4.07;;;;;;;;;;4991906;28;20385;-70
2022/06/01 06:22:55;;;;;;;4.75;3.45;;;;;;;;;;4991260;28;20018;-72
2022/06/01 06:25:20;;;;;;;7.72;3.35;;;;;;;;;;4991252;28;20026;-71
2022/06/01 06:27:45;;;;;;;4.68;2.90;;;;;;;;;;4995061;28;20025;-69
2022/06/01 06:30:11;;;;;;;5.47;3.78;;;;;;;;;;4992981;28;20513;-74
2022/06/01 06:32:36;;;;;;;4.70;2.95;;;;;;;;;;4991774;28;20435;-70
2022/06/01 06:35:02;;;;;;;10.85;3.72;;;;;;;;;;4990122;28;20105;-71
2022/06/01 06:37:27;;;;;;;3.92;3.33;;;;;;;;;;4990893;28;20034;-71
2022/06/01 06:39:52;;;;;;;4.07;3.50;;;;;;;;;;4993603;28;20513;-74
2022/06/01 06:42:18;;;;;;;4.32;3.50;;;;;;;;;;4993165;28;20112;-72
2022/06/01 06:44:43;;;;;;;6.32;3.63;;;;;;;;;;4991996;28;20028;-75
2022/06/01 06:47:09;;;;;;;4.30;3.15;;;;;;;;;;4991087;28;20652;-72
2022/06/01 06:49:34;;;;;;;4.05;3.35;;;;;;;;;;4991493;28;20034;-71
2022/06/01 06:51:59;;;;;;;5.68;3.20;;;;;;;;;;4989902;28;20026;-71
2022/06/01 06:54:27;;;;;;;5.05;3.50;;;;;;;;;;4989821;28;20037;-72
2022/06/01 06:56:52;;;;;;;5.40;3.50;;;;;;;;;;4989799;28;20426;-72
2022/06/01 06:59:17;;;;;;;5.20;3.42;;;;;;;;;;4990843;28;20077;-70
2022/06/01 07:01:43;;;;;;;5.97;3.55;;;;;;;;;;4991199;28;20572;-74
2022/06/01 07:04:08;;;;;;;5.70;3.55;;;;;;;;;;4990339;28;20369;-72
2022/06/01 07:06:34;;;;;;;4.75;3.67;;;;;;;;;;4993308;28;20365;-72
2022/06/01 07:09:00;;;;;;;4.07;3.05;;;;;;;;;;4992164;28;20496;-71
2022/06/01 07:11:28;;;;;;;3.42;3.10;;;;;;;;;;4989123;28;20013;-72
2022/06/01 07:13:53;;;;;;;4.10;3.08;;;;;;;;;;4990696;28;20030;-71
2022/06/01 07:16:20;;;;;;;5.50;2.95;;;;;;;;;;4992120;28;20212;-71
2022/06/01 07:18:47;;;;;;;5.75;2.70;;;;;;;;;;4995179;28;20037;-71
2022/06/01 07:21:14;;;;;;;3.95;2.60;;;;;;;;;;4992162;28;20036;-71
2022/06/01 07:23:40;;;;;;;3.88;2.58;;;;;;;;;;4990490;28;20022;-71
2022/06/01 07:26:06;;;;;;;3.05;2.22;;;;;;;;;;4986456;28;20022;-71
2022/06/01 07:28:32;;;;;;;4.28;2.55;;;;;;;;;;4979090;28;20093;-71
2022/06/01 07:30:57;;;;;;;4.57;2.92;;;;;;;;;;4992396;28;20433;-71
2022/06/01 07:33:24;;;;;;;3.10;2.80;;;;;;;;;;4991571;28;20437;-70
2022/06/01 07:35:49;;;;;;;4.35;2.88;;;;;;;;;;4988804;28;20045;-70
2022/06/01 07:43:42;;;;;;;4.88;2.60;;;;;;;;;;4987506;28;20472;-71
2022/06/01 07:46:08;;;;;;;5.15;2.20;;;;;;;;;;4993103;28;20073;-77
2022/06/01 07:48:33;;;;;;;4.07;2.75;;;;;;;;;;4990923;28;20022;-71
2022/06/01 07:50:59;;;;;;;3.47;2.40;;;;;;;;;;4987742;28;20324;-74
2022/06/01 07:53:24;;;;;;;3.10;2.42;;;;;;;;;;4990003;28;20026;-70
2022/06/01 07:55:50;;;;;;;3.42;2.65;;;;;;;;;;4991326;28;20494;-69
2022/06/01 07:58:15;;;;;;;3.33;2.30;;;;;;;;;;4991271;28;20026;-69
2022/06/01 08:00:40;;;;;;;2.40;2.20;;;;;;;;;;4990391;28;20445;-69
2022/06/01 08:03:10;;;;;;;3.83;2.70;;;;;;;;;;4993405;28;20421;-71
2022/06/01 08:05:36;;;;;;;3.38;2.35;;;;;;;;;;4978510;28;20044;-71
2022/06/01 08:08:01;;;;;;;4.70;2.60;;;;;;;;;;4990670;28;20026;-69
2022/06/01 08:10:27;;;;;;;4.28;2.05;;;;;;;;;;5001017;28;20041;-75
2022/06/01 08:13:07;;;;;;;2.92;1.90;;;;;;;;;;4999076;28;20439;-71
2022/06/01 08:15:34;;;;;;;2.28;2.08;;;;;;;;;;5001585;28;20036;-70
2022/06/01 08:18:00;;;;;;;3.42;2.25;;;;;;;;;;4998599;28;20041;-70
2022/06/01 08:20:26;;;;;;;5.18;2.20;;;;;;;;;;4998026;28;20026;-70
2022/06/01 08:22:52;;;;;;;3.53;2.40;;;;;;;;;;4989498;28;20440;-76
2022/06/01 08:25:18;;;;;;;3.15;2.03;;;;;;;;;;4988053;28;20040;-70
2022/06/01 08:27:44;;;;;;;3.03;1.90;;;;;;;;;;4987934;28;20029;-69
2022/06/01 08:30:10;;;;;;;4.30;2.00;;;;;;;;;;4988181;28;20041;-70
2022/06/01 08:32:35;;;;;;;4.50;2.05;;;;;;;;;;4986981;28;20043;-70
2022/06/01 08:35:01;;;;;;;3.83;2.22;;;;;;;;;;4988867;28;20030;-75
2022/06/01 08:37:26;;;;;;;2.60;2.03;;;;;;;;;;4990261;28;20042;-75
2022/06/01 08:39:52;;;;;;;2.20;2.00;;;;;;;;;;4987359;28;20029;-70
2022/06/01 08:42:19;;;;;;;7.38;2.00;;;;;;;;;;4987086;28;20394;-73
2022/06/01 08:44:45;;;;;;;4.40;1.92;;;;;;;;;;4989792;28;20046;-71
2022/06/01 08:47:26;;;;;;;2.80;1.98;;;;;;;;;;4989039;28;20093;-76
2022/06/01 08:49:52;;;;;;;2.17;1.67;;;;;;;;;;4995421;28;20109;-70
2022/06/01 08:52:19;;;;;;;3.53;2.42;;;;;;;;;;4991961;28;20085;-71
2022/06/01 08:54:44;;;;;;;2.80;1.60;;;;;;;;;;4987626;28;20045;-70
2022/06/01 08:57:26;;;;;;;2.85;2.05;;;;;;;;;;4986511;28;20049;-76
2022/06/01 09:00:03;;;;;;;3.10;2.05;;;;;;;;;;4989315;28;20033;-73
2022/06/01 09:02:58;;;;;;;2.90;1.90;;;;;;;;;;4986709;28;20026;-73
2022/06/01 09:05:29;;;;;;;1.73;1.45;;;;;;;;;;4952940;28;20050;-69
2022/06/01 09:08:05;;;;;;;2.70;2.00;;;;;;;;;;4985595;28;20034;-72
2022/06/01 09:10:46;;;;;;;5.13;2.13;;;;;;;;;;4988762;28;20033;-73
2022/06/01 09:13:11;;;;;;;2.22;1.35;;;;;;;;;;4985808;28;20073;-69
2022/06/01 09:15:44;;;;;;;2.00;1.47;;;;;;;;;;4987259;28;20054;-69
2022/06/01 09:18:10;;;;;;;2.08;1.20;;;;;;;;;;4990296;28;20274;-75
2022/06/01 09:23:19;;;;;;;1.55;1.25;;;;;;;;;;4989527;28;20133;-70
2022/06/01 09:25:52;;;;;;;2.53;1.38;;;;;;;;;;4988418;28;20144;-71
2022/06/01 09:28:19;;;;;;;3.05;1.67;;;;;;;;;;4986521;28;20040;-75
2022/06/01 09:30:45;;;;;;;4.68;1.90;;;;;;;;;;4987055;28;20033;-69
2022/06/01 09:33:23;;;;;;;1.88;1.38;;;;;;;;;;4990475;28;20437;-69
2022/06/01 09:36:06;;;;;;;2.70;1.40;;;;;;;;;;4990831;28;20042;-73
2022/06/01 09:38:34;;;;;;;3.03;1.30;;;;;;;;;;4986783;28;20088;-70
2022/06/01 09:41:10;;;;;;;3.42;1.30;;;;;;;;;;4990821;28;20030;-70
2022/06/01 09:43:37;;;;;;;1.50;1.27;;;;;;;;;;4986239;28;20081;-69
2022/06/01 09:46:03;;;;;;;3.30;1.70;;;;;;;;;;4990245;28;20057;-68
2022/06/01 09:48:28;;;;;;;2.75;1.35;;;;;;;;;;4989890;28;20427;-70
2022/06/01 09:51:02;;;;;;;1.77;1.15;;;;;;;;;;4989616;28;20037;-69
2022/06/01 09:53:34;;;;;;;2.55;1.67;;;;;;;;;;4986773;28;20038;-73
2022/06/01 09:56:02;;;;;;;3.38;1.85;;;;;;;;;;4987149;28;20145;-69
2022/06/01 10:06:48;;;;;;;3.33;1.38;;;;;;;;;;4989794;28;20036;-69
2022/06/01 10:09:18;;;;;;;3.35;1.50;;;;;;;;;;4987079;28;20370;-73
2022/06/01 10:11:46;;;;;;;3.42;1.38;;;;;;;;;;4986962;28;20454;-67
2022/06/01 10:14:19;;;;;;;2.83;1.40;;;;;;;;;;4990757;28;20137;-68
2022/06/01 10:16:50;;;;;;;4.13;1.40;;;;;;;;;;4989934;28;20038;-69
2022/06/01 10:19:18;;;;;;;3.08;1.50;;;;;;;;;;4991352;28;20033;-72
2022/06/01 10:21:50;;;;;;;1.92;1.35;;;;;;;;;;4990884;28;20121;-72
2022/06/01 10:24:22;;;;;;;3.25;2.00;;;;;;;;;;4987929;28;20026;-70
2022/06/01 10:26:50;;;;;;;6.65;1.50;;;;;;;;;;4986934;28;20134;-69
2022/06/01 10:29:18;;;;;;;2.38;1.70;;;;;;;;;;4987828;28;20109;-74
2022/06/01 10:31:55;;;;;;;7.53;1.70;;;;;;;;;;4986846;28;20053;-69
2022/06/01 10:34:23;;;;;;;3.58;1.35;;;;;;;;;;4987676;28;20030;-69
2022/06/01 10:37:07;;;;;;;2.67;1.73;;;;;;;;;;4991144;28;20030;-70
2022/06/01 10:39:38;;;;;;;3.63;1.83;;;;;;;;;;4987356;28;20101;-69
2022/06/01 10:42:10;;;;;;;4.80;1.70;;;;;;;;;;4990941;28;20342;-72
2022/06/01 10:44:44;;;;;;;1.67;1.30;;;;;;;;;;4989483;28;20027;-69
2022/06/01 10:47:14;;;;;;;2.03;1.42;;;;;;;;;;4988505;28;20045;-70
2022/06/01 10:49:52;;;;;;;2.45;1.60;;;;;;;;;;4986237;28;20037;-69
2022/06/01 10:52:23;;;;;;;3.05;1.50;;;;;;;;;;4988101;28;20029;-71
2022/06/01 10:55:07;;;;;;;2.55;1.33;;;;;;;;;;4988173;28;20025;-71
2022/06/01 10:57:35;;;;;;;2.95;1.67;;;;;;;;;;4985692;28;20133;-68
2022/06/01 11:00:00;;;;;;;2.63;1.52;;;;;;;;;;4987035;28;20353;-70
2022/06/01 11:02:44;;;;;;;3.10;1.33;;;;;;;;;;4988965;28;20030;-71
2022/06/01 11:05:15;;;;;;;3.42;1.55;;;;;;;;;;4992599;28;20045;-73
2022/06/01 11:07:53;;;;;;;3.25;1.48;;;;;;;;;;4991458;28;20034;-72
2022/06/01 11:10:25;;;;;;;1.83;1.40;;;;;;;;;;4993950;28;20703;-72
2022/06/01 11:13:16;;;;;;;4.25;1.73;;;;;;;;;;4987949;28;20049;-69
2022/06/01 11:16:04;;;;;;;4.70;1.52;;;;;;;;;;4962783;28;20042;-72
2022/06/01 11:18:39;;;;;;;2.92;1.65;;;;;;;;;;4989960;28;20018;-70
2022/06/01 11:21:07;;;;;;;4.85;1.75;;;;;;;;;;4992159;28;20030;-69
2022/06/01 11:23:32;;;;;;;2.05;1.42;;;;;;;;;;4990619;28;20330;-70
2022/06/01 11:26:21;;;;;;;2.35;1.42;;;;;;;;;;4991302;28;20053;-69
2022/06/01 11:29:07;;;;;;;5.38;1.90;;;;;;;;;;4990812;28;20033;-70
2022/06/01 11:31:34;;;;;;;3.40;1.50;;;;;;;;;;4988550;28;20030;-69
2022/06/01 11:33:59;;;;;;;1.55;1.42;;;;;;;;;;4989830;28;20080;-70
2022/06/01 11:36:27;;;;;;;2.70;1.33;;;;;;;;;;4986134;28;20406;-72
2022/06/01 11:39:05;;;;;;;3.10;1.50;;;;;;;;;;4990244;28;20260;-68
2022/06/01 11:41:34;;;;;;;3.00;1.30;;;;;;;;;;4989678;28;20105;-70
2022/06/01 11:44:05;;;;;;;2.90;1.40;;;;;;;;;;4993052;28;20026;-69
2022/06/01 11:46:53;;;;;;;2.58;1.08;;;;;;;;;;4990836;28;20519;-71
2022/06/01 11:49:37;;;;;;;2.72;1.50;;;;;;;;;;4985761;28;20046;-69
2022/06/01 11:52:12;;;;;;;2.85;1.38;;;;;;;;;;4989621;28;20418;-69
2022/06/01 11:54:37;;;;;;;2.42;1.33;;;;;;;;;;4991765;28;20060;-70
2022/06/01 11:57:16;;;;;;;3.28;2.10;;;;;;;;;;4988319;28;20478;-75
2022/06/01 11:59:52;;;;;;;4.32;2.03;;;;;;;;;;4990801;28;20057;-70
2022/06/01 12:02:19;;;;;;;2.42;1.80;;;;;;;;;;4992958;28;20030;-72
2022/06/01 12:04:54;;;;;;;3.17;2.22;;;;;;;;;;4986586;28;20032;-70
2022/06/01 12:07:20;;;;;;;3.70;1.92;;;;;;;;;;4989379;28;20061;-68
2022/06/01 12:09:48;;;;;;;2.57;1.70;;;;;;;;;;4986215;28;20065;-74
2022/06/01 12:12:31;;;;;;;4.82;1.98;;;;;;;;;;4990748;28;20259;-68
2022/06/01 12:15:00;;;;;;;2.42;1.90;;;;;;;;;;4982448;28;20369;-70
2022/06/01 12:17:27;;;;;;;3.97;2.00;;;;;;;;;;4983981;28;20041;-69
2022/06/01 12:20:13;;;;;;;3.55;2.55;;;;;;;;;;4977197;28;20030;-73
2022/06/01 12:28:51;;;;;;;6.65;2.10;;;;;;;;;;4988476;28;20037;-70
2022/06/01 12:31:17;;;;;;;4.25;1.65;;;;;;;;;;4991624;28;20036;-68
2022/06/01 12:34:01;;;;;;;2.13;1.70;;;;;;;;;;4985961;28;20038;-68
2022/06/01 12:36:28;;;;;;;2.95;1.70;;;;;;;;;;4989503;28;20311;-71
2022/06/01 12:38:54;;;;;;;3.15;1.70;;;;;;;;;;4987520;28;20029;-71
2022/06/01 12:41:21;;;;;;;4.97;2.10;;;;;;;;;;4983996;28;20038;-72
2022/06/01 12:43:48;;;;;;;2.60;1.80;;;;;;;;;;4981057;28;20022;-68
2022/06/01 12:46:25;;;;;;;4.00;2.15;;;;;;;;;;4990625;28;21820;-72
2022/06/01 12:48:51;;;;;;;4.18;2.08;;;;;;;;;;4978592;28;20034;-71
2022/06/01 12:51:18;;;;;;;3.03;2.00;;;;;;;;;;4982291;28;20490;-71
2022/06/01 12:53:45;;;;;;;2.65;1.60;;;;;;;;;;4972126;28;20122;-72
2022/06/01 12:56:14;;;;;;;2.40;1.67;;;;;;;;;;4983616;28;20145;-73
2022/06/01 12:58:40;;;;;;;5.60;2.17;;;;;;;;;;4985279;28;20029;-68
2022/06/01 13:01:06;;;;;;;3.67;2.25;;;;;;;;;;4989282;28;20027;-70
2022/06/01 13:03:33;;;;;;;2.85;2.47;;;;;;;;;;4979068;28;20060;-70
2022/06/01 13:05:59;;;;;;;3.45;1.95;;;;;;;;;;4985963;28;20058;-70
2022/06/01 13:08:27;;;;;;;3.55;2.20;;;;;;;;;;4989143;28;20034;-71
2022/06/01 13:10:52;;;;;;;4.72;2.35;;;;;;;;;;4987138;28;20021;-72
2022/06/01 13:13:28;;;;;;;2.45;2.00;;;;;;;;;;4979430;28;20044;-70
2022/06/01 13:16:07;;;;;;;4.32;2.53;;;;;;;;;;4975623;28;20150;-69
2022/06/01 13:18:38;;;;;;;4.28;2.47;;;;;;;;;;4977072;28;20342;-68
2022/06/01 13:21:07;;;;;;;4.88;2.20;;;;;;;;;;4986851;28;20030;-68
2022/06/01 13:23:33;;;;;;;3.65;2.20;;;;;;;;;;4985881;28;20025;-69
2022/06/01 13:26:00;;;;;;;4.93;2.40;;;;;;;;;;4981286;28;20034;-70
2022/06/01 13:28:25;;;;;;;4.30;2.17;;;;;;;;;;4969985;28;20081;-71
2022/06/01 13:30:51;;;;;;;2.75;2.20;;;;;;;;;;4974469;28;20026;-74
2022/06/01 13:33:36;;;;;;;3.70;2.00;;;;;;;;;;4975036;28;20505;-71
2022/06/01 13:36:07;;;;;;;3.85;2.10;;;;;;;;;;4978671;28;20057;-72
2022/06/01 13:38:41;;;;;;;3.83;2.40;;;;;;;;;;4982230;28;20073;-68
2022/06/01 13:41:09;;;;;;;5.78;2.40;;;;;;;;;;4972866;28;20026;-70
2022/06/01 13:43:42;;;;;;;4.65;2.55;;;;;;;;;;4976630;28;20030;-72
2022/06/01 13:46:10;;;;;;;5.40;4.43;;;;;;;;;;4979086;28;20109;-72
2022/06/01 13:48:40;;;;;;;4.78;3.53;;;;;;;;;;4978244;28;20109;-71
2022/06/01 13:51:31;;;;;;;8.15;5.43;;;;;;;;;;4988077;28;20038;-70
2022/06/01 13:53:58;;;;;;;7.55;3.58;;;;;;;;;;4975154;28;20069;-72
2022/06/01 13:56:32;;;;;;;8.27;6.80;;;;;;;;;;4984641;28;20054;-74
2022/06/01 13:58:59;;;;;;;9.10;7.65;;;;;;;;;;4976503;28;20137;-71
2022/06/01 14:01:44;;;;;;;4.20;3.80;;;;;;;;;;4974964;28;20030;-72
2022/06/01 14:04:20;;;;;;;6.53;3.72;;;;;;;;;;4974912;28;20041;-71
2022/06/01 14:06:50;;;;;;;3.90;3.60;;;;;;;;;;4976336;28;20029;-76
2022/06/01 14:09:15;;;;;;;5.65;3.33;;;;;;;;;;4972983;28;20117;-74
2022/06/01 14:11:41;;;;;;;5.47;3.40;;;;;;;;;;4987915;28;20093;-71
2022/06/01 14:14:17;;;;;;;4.13;3.10;;;;;;;;;;4972932;28;20105;-74
2022/06/01 14:16:48;;;;;;;9.35;6.07;;;;;;;;;;4971430;28;20064;-75
2022/06/01 14:19:14;;;;;;;6.68;4.38;;;;;;;;;;4976507;28;20046;-75
2022/06/01 14:21:39;;;;;;;4.28;2.97;;;;;;;;;;4975001;28;20040;-69
2022/06/01 14:24:05;;;;;;;4.77;2.97;;;;;;;;;;4977203;28;20451;-71
2022/06/01 14:29:14;;;;;;;3.65;2.67;;;;;;;;;;4976279;28;20061;-69
2022/06/01 14:31:40;;;;;;;5.65;2.88;;;;;;;;;;4976988;28;20437;-70
2022/06/01 14:34:06;;;;;;;4.30;3.10;;;;;;;;;;4978433;28;20360;-71
2022/06/01 14:36:32;;;;;;;4.70;2.75;;;;;;;;;;4982521;28;20041;-71
2022/06/01 14:38:58;;;;;;;2.95;2.33;;;;;;;;;;4986190;28;20066;-71
2022/06/01 14:41:34;;;;;;;5.05;2.95;;;;;;;;;;4982731;28;20034;-71
2022/06/01 14:44:05;;;;;;;3.92;2.53;;;;;;;;;;4982051;28;20029;-71
2022/06/01 14:46:30;;;;;;;4.00;2.30;;;;;;;;;;4981521;28;20034;-70
2022/06/01 14:48:56;;;;;;;3.55;2.40;;;;;;;;;;4979485;28;20430;-71
2022/06/01 14:51:25;;;;;;;3.47;2.58;;;;;;;;;;4982704;28;20035;-71
2022/06/01 14:53:51;;;;;;;5.15;2.60;;;;;;;;;;4991013;28;20109;-70
2022/06/01 14:56:17;;;;;;;5.05;2.67;;;;;;;;;;4989719;28;20108;-69
2022/06/01 14:58:42;;;;;;;4.57;2.42;;;;;;;;;;4988898;28;20030;-70
2022/06/01 15:01:10;;;;;;;5.10;2.80;;;;;;;;;;4989441;28;20172;-70
2022/06/01 15:03:37;;;;;;;5.22;3.03;;;;;;;;;;4978182;28;20052;-70
2022/06/01 15:06:02;;;;;;;4.50;2.67;;;;;;;;;;4982962;28;20037;-69
2022/06/01 15:08:28;;;;;;;6.35;3.00;;;;;;;;;;4975765;28;20026;-66
2022/06/01 15:10:53;;;;;;;2.80;2.15;;;;;;;;;;4986398;28;20022;-70
2022/06/01 15:13:18;;;;;;;3.25;2.35;;;;;;;;;;4996562;28;20137;-69
2022/06/01 15:15:44;;;;;;;4.03;2.08;;;;;;;;;;4980252;28;20200;-75
2022/06/01 15:18:09;;;;;;;2.92;2.28;;;;;;;;;;4978670;28;20049;-69
2022/06/01 15:20:35;;;;;;;3.35;2.40;;;;;;;;;;4982952;28;20034;-71
2022/06/01 15:23:01;;;;;;;3.95;2.35;;;;;;;;;;4996718;28;20030;-71